createdAt,value
2017-05-24T00:00:17.243Z,0
2017-05-24T00:00:57.822Z,0
2017-05-24T00:01:38.479Z,0
2017-05-24T00:02:18.997Z,0
2017-05-24T00:02:59.567Z,0
2017-05-24T00:03:40.167Z,0
2017-05-24T00:04:20.749Z,0
2017-05-24T00:05:01.326Z,0
2017-05-24T00:05:41.909Z,0
2017-05-24T00:06:22.486Z,0
2017-05-24T00:07:03.066Z,0
2017-05-24T00:07:43.632Z,0
2017-05-24T00:08:24.244Z,0
2017-05-24T00:09:04.829Z,0
2017-05-24T00:09:45.460Z,0
2017-05-24T00:10:26.045Z,0
2017-05-24T00:11:06.609Z,0
2017-05-24T00:11:47.186Z,0
2017-05-24T00:12:27.793Z,0
2017-05-24T00:13:08.390Z,0
2017-05-24T00:13:48.974Z,0
2017-05-24T00:14:29.546Z,0
2017-05-24T00:15:10.136Z,0
2017-05-24T00:15:50.715Z,0
2017-05-24T00:16:31.300Z,0
2017-05-24T00:17:11.923Z,0
2017-05-24T00:17:52.458Z,0
2017-05-24T00:18:33.062Z,0
2017-05-24T00:19:13.671Z,0
2017-05-24T00:19:54.263Z,0
2017-05-24T00:20:34.880Z,0
2017-05-24T00:21:15.468Z,0
2017-05-24T00:21:56.082Z,0
2017-05-24T00:22:36.686Z,0
2017-05-24T00:23:17.287Z,0
2017-05-24T00:23:57.865Z,0
2017-05-24T00:24:38.455Z,0
2017-05-24T00:25:19.046Z,0
2017-05-24T00:25:59.625Z,0
2017-05-24T00:26:40.232Z,0
2017-05-24T00:27:20.831Z,0
2017-05-24T00:28:01.404Z,0
2017-05-24T00:28:41.978Z,0
2017-05-24T00:29:22.562Z,0
2017-05-24T00:30:03.147Z,0
2017-05-24T00:30:43.752Z,0
2017-05-24T00:31:24.352Z,0
2017-05-24T00:32:04.930Z,0
2017-05-24T00:32:45.528Z,0
2017-05-24T00:33:26.096Z,0
2017-05-24T00:34:06.709Z,0
2017-05-24T00:34:47.293Z,0
2017-05-24T00:35:27.865Z,0
2017-05-24T00:36:08.464Z,0
2017-05-24T00:36:49.035Z,0
2017-05-24T00:37:29.619Z,0
2017-05-24T00:38:10.200Z,0
2017-05-24T00:38:50.797Z,0
2017-05-24T00:39:31.380Z,0
2017-05-24T00:40:11.967Z,0
2017-05-24T00:40:52.566Z,0
2017-05-24T00:41:33.152Z,0
2017-05-24T00:42:13.727Z,0
2017-05-24T00:42:54.312Z,0
2017-05-24T00:43:34.902Z,0
2017-05-24T00:44:15.476Z,0
2017-05-24T00:44:56.060Z,0
2017-05-24T00:45:36.634Z,0
2017-05-24T00:46:17.222Z,0
2017-05-24T00:46:57.843Z,0
2017-05-24T00:47:38.451Z,0
2017-05-24T00:48:19.050Z,0
2017-05-24T00:48:59.628Z,0
2017-05-24T00:49:40.221Z,0
2017-05-24T00:50:20.806Z,0
2017-05-24T00:51:01.383Z,0
2017-05-24T00:51:41.979Z,0
2017-05-24T00:52:22.623Z,0
2017-05-24T00:53:03.207Z,0
2017-05-24T00:53:43.791Z,0
2017-05-24T00:54:24.377Z,0
2017-05-24T00:55:04.948Z,0
2017-05-24T00:55:45.546Z,0
2017-05-24T00:56:26.133Z,0
2017-05-24T00:57:06.716Z,0
2017-05-24T00:57:47.289Z,0
2017-05-24T00:58:27.872Z,0
2017-05-24T00:59:08.468Z,0
2017-05-24T00:59:49.049Z,0
2017-05-24T01:00:29.638Z,0
2017-05-24T01:01:10.224Z,0
2017-05-24T01:01:50.816Z,0
2017-05-24T01:02:31.398Z,0
2017-05-24T01:03:11.976Z,0
2017-05-24T01:03:52.556Z,0
2017-05-24T01:04:33.160Z,0
2017-05-24T01:05:13.750Z,0
2017-05-24T01:05:54.344Z,0
2017-05-24T01:06:34.934Z,0
2017-05-24T01:07:15.518Z,0
2017-05-24T01:07:56.104Z,0
2017-05-24T01:08:36.688Z,0
2017-05-24T01:09:17.259Z,0
2017-05-24T01:09:57.847Z,0
2017-05-24T01:10:38.426Z,0
2017-05-24T01:11:19.035Z,0
2017-05-24T01:11:59.656Z,0
2017-05-24T01:12:40.239Z,0
2017-05-24T01:13:20.820Z,0
2017-05-24T01:14:01.394Z,0
2017-05-24T01:14:41.981Z,0
2017-05-24T01:15:22.562Z,0
2017-05-24T01:16:03.146Z,0
2017-05-24T01:16:43.716Z,0
2017-05-24T01:17:24.373Z,0
2017-05-24T01:18:04.878Z,0
2017-05-24T01:18:45.455Z,0
2017-05-24T01:19:26.037Z,0
2017-05-24T01:20:06.616Z,0
2017-05-24T01:20:47.226Z,0
2017-05-24T01:21:27.804Z,0
2017-05-24T01:22:08.404Z,0
2017-05-24T01:22:48.987Z,0
2017-05-24T01:23:29.570Z,0
2017-05-24T01:24:10.171Z,0
2017-05-24T01:24:50.751Z,0
2017-05-24T01:25:31.339Z,0
2017-05-24T01:26:11.921Z,0
2017-05-24T01:26:52.504Z,0
2017-05-24T01:27:33.112Z,0
2017-05-24T01:28:13.771Z,0
2017-05-24T01:28:54.411Z,0
2017-05-24T01:29:34.991Z,0
2017-05-24T01:30:15.564Z,0
2017-05-24T01:30:56.157Z,0
2017-05-24T01:31:36.739Z,0
2017-05-24T01:32:17.306Z,0
2017-05-24T01:32:57.897Z,0
2017-05-24T01:33:38.479Z,0
2017-05-24T01:34:19.102Z,0
2017-05-24T01:34:59.673Z,0
2017-05-24T01:35:40.256Z,0
2017-05-24T01:36:20.859Z,0
2017-05-24T01:37:01.486Z,0
2017-05-24T01:37:42.076Z,0
2017-05-24T01:38:22.662Z,0
2017-05-24T01:39:03.252Z,0
2017-05-24T01:39:43.839Z,0
2017-05-24T01:40:24.412Z,0
2017-05-24T01:41:04.997Z,0
2017-05-24T01:41:45.588Z,0
2017-05-24T01:42:26.194Z,0
2017-05-24T01:43:06.775Z,0
2017-05-24T01:43:47.369Z,0
2017-05-24T01:44:27.959Z,0
2017-05-24T01:45:08.536Z,0
2017-05-24T01:45:49.121Z,0
2017-05-24T01:46:29.705Z,0
2017-05-24T01:47:10.278Z,0
2017-05-24T01:47:50.851Z,0
2017-05-24T01:48:31.439Z,0
2017-05-24T01:49:12.012Z,0
2017-05-24T01:49:52.587Z,0
2017-05-24T01:50:33.161Z,0
2017-05-24T01:51:13.763Z,0
2017-05-24T01:51:54.335Z,0
2017-05-24T01:52:34.927Z,0
2017-05-24T01:53:15.519Z,0
2017-05-24T01:53:56.096Z,0
2017-05-24T01:54:36.673Z,0
2017-05-24T01:55:17.274Z,0
2017-05-24T01:55:57.899Z,0
2017-05-24T01:56:38.476Z,0
2017-05-24T01:57:19.054Z,0
2017-05-24T01:57:59.637Z,0
2017-05-24T01:58:40.216Z,0
2017-05-24T01:59:20.795Z,0
2017-05-24T02:00:01.375Z,0
2017-05-24T02:00:41.952Z,0
2017-05-24T02:01:22.583Z,0
2017-05-24T02:02:03.190Z,0
2017-05-24T02:02:43.766Z,0
2017-05-24T02:03:24.350Z,0
2017-05-24T02:04:04.923Z,0
2017-05-24T02:04:45.503Z,0
2017-05-24T02:05:26.102Z,0
2017-05-24T02:06:06.703Z,0
2017-05-24T02:06:47.272Z,0
2017-05-24T02:07:27.867Z,0
2017-05-24T02:08:08.442Z,0
2017-05-24T02:08:49.015Z,0
2017-05-24T02:09:29.625Z,0
2017-05-24T02:10:10.213Z,0
2017-05-24T02:10:50.789Z,0
2017-05-24T02:11:31.374Z,0
2017-05-24T02:12:11.952Z,0
2017-05-24T02:12:52.538Z,0
2017-05-24T02:13:33.104Z,0
2017-05-24T02:14:13.715Z,0
2017-05-24T02:14:54.298Z,0
2017-05-24T02:15:34.869Z,0
2017-05-24T02:16:15.448Z,0
2017-05-24T02:16:56.026Z,0
2017-05-24T02:17:36.610Z,0
2017-05-24T02:18:17.197Z,0
2017-05-24T02:18:57.793Z,0
2017-05-24T02:19:38.376Z,0
2017-05-24T02:20:19.002Z,0
2017-05-24T02:20:59.579Z,0
2017-05-24T02:21:40.162Z,0
2017-05-24T02:22:20.742Z,0
2017-05-24T02:23:01.339Z,0
2017-05-24T02:23:41.918Z,0
2017-05-24T02:24:22.493Z,0
2017-05-24T02:25:03.082Z,0
2017-05-24T02:25:43.682Z,0
2017-05-24T02:26:24.262Z,0
2017-05-24T02:27:04.857Z,0
2017-05-24T02:27:45.439Z,0
2017-05-24T02:28:26.026Z,0
2017-05-24T02:29:06.605Z,0
2017-05-24T02:29:47.196Z,0
2017-05-24T02:30:27.773Z,0
2017-05-24T02:31:08.360Z,0
2017-05-24T02:31:48.954Z,0
2017-05-24T02:32:29.528Z,0
2017-05-24T02:33:10.123Z,0
2017-05-24T02:33:50.715Z,0
2017-05-24T02:34:31.306Z,0
2017-05-24T02:35:11.896Z,0
2017-05-24T02:35:52.469Z,0
2017-05-24T02:36:33.047Z,0
2017-05-24T02:37:13.646Z,0
2017-05-24T02:37:54.230Z,0
2017-05-24T02:38:34.816Z,0
2017-05-24T02:39:15.391Z,0
2017-05-24T02:39:55.969Z,0
2017-05-24T02:40:36.561Z,0
2017-05-24T02:41:17.141Z,0
2017-05-24T02:41:57.818Z,0
2017-05-24T02:42:38.396Z,0
2017-05-24T02:43:18.975Z,0
2017-05-24T02:43:59.547Z,0
2017-05-24T02:44:40.129Z,0
2017-05-24T02:45:20.712Z,0
2017-05-24T02:46:01.295Z,0
2017-05-24T02:46:41.874Z,0
2017-05-24T02:47:22.463Z,0
2017-05-24T02:48:03.048Z,0
2017-05-24T02:48:43.664Z,0
2017-05-24T02:49:24.250Z,0
2017-05-24T02:50:04.837Z,0
2017-05-24T02:50:45.401Z,0
2017-05-24T02:51:26.000Z,0
2017-05-24T02:52:06.597Z,0
2017-05-24T02:52:47.188Z,0
2017-05-24T02:53:27.869Z,0
2017-05-24T02:54:08.448Z,0
2017-05-24T02:54:49.027Z,0
2017-05-24T02:55:29.609Z,0
2017-05-24T02:56:10.187Z,0
2017-05-24T02:56:50.780Z,0
2017-05-24T02:57:31.363Z,0
2017-05-24T02:58:11.940Z,0
2017-05-24T02:58:52.523Z,0
2017-05-24T02:59:33.104Z,0
2017-05-24T03:00:13.689Z,0
2017-05-24T03:00:54.267Z,0
2017-05-24T03:01:34.845Z,0
2017-05-24T03:02:15.431Z,0
2017-05-24T03:02:56.023Z,0
2017-05-24T03:03:36.622Z,0
2017-05-24T03:04:17.192Z,0
2017-05-24T03:04:57.797Z,0
2017-05-24T03:05:38.386Z,0
2017-05-24T03:06:18.979Z,0
2017-05-24T03:06:59.569Z,0
2017-05-24T03:07:40.175Z,0
2017-05-24T03:08:20.751Z,0
2017-05-24T03:09:01.326Z,0
2017-05-24T03:09:41.906Z,0
2017-05-24T03:10:22.519Z,0
2017-05-24T03:11:03.101Z,0
2017-05-24T03:11:43.688Z,0
2017-05-24T03:12:24.267Z,0
2017-05-24T03:13:04.837Z,0
2017-05-24T03:13:45.490Z,0
2017-05-24T03:14:26.021Z,0
2017-05-24T03:15:06.597Z,0
2017-05-24T03:15:47.179Z,0
2017-05-24T03:16:27.757Z,0
2017-05-24T03:17:08.349Z,0
2017-05-24T03:17:48.930Z,0
2017-05-24T03:18:29.521Z,0
2017-05-24T03:19:10.111Z,0
2017-05-24T03:19:50.685Z,0
2017-05-24T03:20:31.278Z,0
2017-05-24T03:21:11.863Z,0
2017-05-24T03:21:52.433Z,0
2017-05-24T03:22:33.013Z,0
2017-05-24T03:23:13.601Z,0
2017-05-24T03:23:54.206Z,5
2017-05-24T03:24:34.874Z,5
2017-05-24T03:25:15.492Z,5
2017-05-24T03:25:56.062Z,5
2017-05-24T03:26:36.653Z,5
2017-05-24T03:27:17.222Z,5
2017-05-24T03:27:57.814Z,5
2017-05-24T03:28:38.408Z,5
2017-05-24T03:29:18.995Z,5
2017-05-24T03:29:59.589Z,5
2017-05-24T03:30:40.162Z,5
2017-05-24T03:31:20.747Z,5
2017-05-24T03:32:01.382Z,5
2017-05-24T03:32:41.946Z,5
2017-05-24T03:33:22.590Z,5
2017-05-24T03:34:03.203Z,5
2017-05-24T03:34:43.791Z,5
2017-05-24T03:35:24.383Z,5
2017-05-24T03:36:04.969Z,5
2017-05-24T03:36:45.548Z,5
2017-05-24T03:37:26.131Z,5
2017-05-24T03:38:06.730Z,5
2017-05-24T03:38:47.324Z,5
2017-05-24T03:39:27.915Z,5
2017-05-24T03:40:08.488Z,5
2017-05-24T03:40:49.095Z,5
2017-05-24T03:41:29.693Z,5
2017-05-24T03:42:10.291Z,5
2017-05-24T03:42:50.873Z,5
2017-05-24T03:43:31.455Z,5
2017-05-24T03:44:12.039Z,5
2017-05-24T03:44:52.657Z,5
2017-05-24T03:45:33.256Z,5
2017-05-24T03:46:13.839Z,5
2017-05-24T03:46:54.416Z,5
2017-05-24T03:47:35.007Z,5
2017-05-24T03:48:15.596Z,5
2017-05-24T03:48:56.222Z,5
2017-05-24T03:49:36.795Z,5
2017-05-24T03:50:17.387Z,5
2017-05-24T03:50:57.994Z,5
2017-05-24T03:51:38.568Z,5
2017-05-24T03:52:19.140Z,5
2017-05-24T03:52:59.751Z,5
2017-05-24T03:53:40.323Z,10
2017-05-24T03:54:20.890Z,10
2017-05-24T03:55:01.498Z,10
2017-05-24T03:55:42.085Z,10
2017-05-24T03:56:22.673Z,10
2017-05-24T03:57:03.362Z,10
2017-05-24T03:57:43.942Z,10
2017-05-24T03:58:24.518Z,10
2017-05-24T03:59:05.094Z,10
2017-05-24T03:59:45.711Z,10
2017-05-24T04:00:26.291Z,10
2017-05-24T04:01:06.887Z,10
2017-05-24T04:01:47.495Z,10
2017-05-24T04:02:28.094Z,10
2017-05-24T04:03:08.676Z,10
2017-05-24T04:03:49.262Z,10
2017-05-24T04:04:29.838Z,10
2017-05-24T04:05:10.418Z,10
2017-05-24T04:05:50.997Z,10
2017-05-24T04:06:31.588Z,10
2017-05-24T04:07:12.171Z,10
2017-05-24T04:07:52.772Z,10
2017-05-24T04:08:33.358Z,10
2017-05-24T04:09:13.966Z,10
2017-05-24T04:09:54.544Z,10
2017-05-24T04:10:35.138Z,10
2017-05-24T04:11:15.732Z,10
2017-05-24T04:11:56.318Z,10
2017-05-24T04:12:36.891Z,10
2017-05-24T04:13:17.470Z,15
2017-05-24T04:13:58.056Z,15
2017-05-24T04:14:38.637Z,15
2017-05-24T04:15:19.272Z,15
2017-05-24T04:15:59.855Z,15
2017-05-24T04:16:40.439Z,15
2017-05-24T04:17:21.036Z,15
2017-05-24T04:18:01.622Z,15
2017-05-24T04:18:42.216Z,15
2017-05-24T04:19:22.809Z,15
2017-05-24T04:20:03.388Z,15
2017-05-24T04:20:43.976Z,15
2017-05-24T04:21:24.594Z,15
2017-05-24T04:22:05.148Z,15
2017-05-24T04:22:45.742Z,15
2017-05-24T04:23:26.329Z,15
2017-05-24T04:24:06.911Z,15
2017-05-24T04:24:47.495Z,15
2017-05-24T04:25:28.073Z,15
2017-05-24T04:26:08.655Z,15
2017-05-24T04:26:49.240Z,15
2017-05-24T04:27:29.824Z,15
2017-05-24T04:28:10.407Z,15
2017-05-24T04:28:50.978Z,15
2017-05-24T04:29:31.568Z,15
2017-05-24T04:30:12.147Z,15
2017-05-24T04:30:52.776Z,15
2017-05-24T04:31:33.366Z,15
2017-05-24T04:32:13.942Z,15
2017-05-24T04:32:54.513Z,15
2017-05-24T04:33:35.156Z,15
2017-05-24T04:34:15.729Z,15
2017-05-24T04:34:56.299Z,15
2017-05-24T04:35:36.874Z,15
2017-05-24T04:36:17.448Z,15
2017-05-24T04:36:58.027Z,15
2017-05-24T04:37:38.608Z,15
2017-05-24T04:38:19.217Z,15
2017-05-24T04:38:59.803Z,15
2017-05-24T04:39:40.387Z,15
2017-05-24T04:40:20.971Z,15
2017-05-24T04:41:01.633Z,15
2017-05-24T04:41:42.150Z,15
2017-05-24T04:42:22.730Z,15
2017-05-24T04:43:03.461Z,15
2017-05-24T04:43:44.058Z,10
2017-05-24T04:44:24.627Z,10
2017-05-24T04:45:05.210Z,15
2017-05-24T04:45:45.791Z,15
2017-05-24T04:46:26.367Z,15
2017-05-24T04:47:06.945Z,15
2017-05-24T04:47:47.521Z,15
2017-05-24T04:48:28.100Z,15
2017-05-24T04:49:08.709Z,20
2017-05-24T04:49:49.295Z,20
2017-05-24T04:50:29.873Z,20
2017-05-24T04:51:10.444Z,20
2017-05-24T04:51:51.077Z,25
2017-05-24T04:52:31.657Z,25
2017-05-24T04:53:12.228Z,25
2017-05-24T04:53:52.833Z,25
2017-05-24T04:54:33.437Z,25
2017-05-24T04:55:14.019Z,25
2017-05-24T04:55:54.604Z,25
2017-05-24T04:56:35.182Z,20
2017-05-24T04:57:15.759Z,20
2017-05-24T04:57:56.348Z,20
2017-05-24T04:58:36.929Z,20
2017-05-24T04:59:17.522Z,20
2017-05-24T04:59:58.101Z,20
2017-05-24T05:00:38.678Z,20
2017-05-24T05:01:19.379Z,20
2017-05-24T05:01:59.957Z,20
2017-05-24T05:02:40.557Z,20
2017-05-24T05:03:21.139Z,25
2017-05-24T05:04:01.726Z,25
2017-05-24T05:04:42.303Z,25
2017-05-24T05:05:22.900Z,25
2017-05-24T05:06:03.503Z,25
2017-05-24T05:06:44.104Z,25
2017-05-24T05:07:24.673Z,25
2017-05-24T05:08:05.270Z,25
2017-05-24T05:08:45.871Z,25
2017-05-24T05:09:26.447Z,25
2017-05-24T05:10:07.033Z,25
2017-05-24T05:10:47.604Z,20
2017-05-24T05:11:28.178Z,20
2017-05-24T05:12:08.782Z,20
2017-05-24T05:12:49.363Z,20
2017-05-24T05:13:29.970Z,20
2017-05-24T05:14:10.621Z,20
2017-05-24T05:14:51.205Z,20
2017-05-24T05:15:31.799Z,20
2017-05-24T05:16:12.381Z,20
2017-05-24T05:16:52.954Z,15
2017-05-24T05:17:33.531Z,20
2017-05-24T05:18:14.123Z,20
2017-05-24T05:18:54.724Z,20
2017-05-24T05:19:35.303Z,15
2017-05-24T05:20:15.884Z,15
2017-05-24T05:20:56.474Z,15
2017-05-24T05:21:37.071Z,15
2017-05-24T05:22:17.645Z,15
2017-05-24T05:22:58.224Z,15
2017-05-24T05:23:40.840Z,20
2017-05-24T05:24:21.981Z,20
2017-05-24T05:25:03.361Z,20
2017-05-24T05:25:44.717Z,25
2017-05-24T05:26:26.031Z,25
2017-05-24T05:27:07.411Z,25
2017-05-24T05:27:48.594Z,25
2017-05-24T05:28:29.834Z,25
2017-05-24T05:29:11.152Z,20
2017-05-24T05:29:52.503Z,20
2017-05-24T05:30:33.670Z,20
2017-05-24T05:31:32.944Z,25
2017-05-24T05:32:14.066Z,25
2017-05-24T05:32:59.021Z,25
2017-05-24T05:33:40.394Z,20
2017-05-24T05:34:21.677Z,20
2017-05-24T05:35:02.882Z,20
2017-05-24T05:35:44.285Z,25
2017-05-24T05:36:25.698Z,25
2017-05-24T05:37:07.143Z,25
2017-05-24T05:37:48.999Z,25
2017-05-24T05:38:30.544Z,25
2017-05-24T05:39:11.603Z,30
2017-05-24T05:39:52.867Z,30
2017-05-24T05:40:34.111Z,25
2017-05-24T05:41:15.490Z,25
2017-05-24T05:41:56.730Z,20
2017-05-24T05:42:38.843Z,20
2017-05-24T05:43:20.071Z,20
2017-05-24T05:44:01.089Z,25
2017-05-24T05:44:42.506Z,25
2017-05-24T05:45:23.661Z,25
2017-05-24T05:46:04.518Z,25
2017-05-24T05:46:45.136Z,25
2017-05-24T05:47:25.719Z,20
2017-05-24T05:48:06.291Z,20
2017-05-24T05:48:46.876Z,25
2017-05-24T05:49:27.466Z,25
2017-05-24T05:50:08.051Z,25
2017-05-24T05:50:48.641Z,25
2017-05-24T05:51:29.247Z,30
2017-05-24T05:52:09.827Z,25
2017-05-24T05:52:50.434Z,25
2017-05-24T05:53:30.997Z,20
2017-05-24T05:54:11.574Z,20
2017-05-24T05:54:52.165Z,20
2017-05-24T05:55:32.749Z,20
2017-05-24T05:56:13.346Z,25
2017-05-24T05:56:53.945Z,25
2017-05-24T05:57:34.548Z,25
2017-05-24T05:58:15.121Z,25
2017-05-24T05:58:55.782Z,20
2017-05-24T05:59:36.359Z,20
2017-05-24T06:00:16.948Z,20
2017-05-24T06:00:57.559Z,20
2017-05-24T06:01:38.143Z,20
2017-05-24T06:02:19.559Z,20
2017-05-24T06:03:00.767Z,20
2017-05-24T06:03:42.145Z,25
2017-05-24T06:04:23.460Z,25
2017-05-24T06:05:04.688Z,20
2017-05-24T06:05:45.978Z,20
2017-05-24T06:06:27.348Z,20
2017-05-24T06:07:08.631Z,20
2017-05-24T06:07:49.942Z,20
2017-05-24T06:08:31.279Z,20
2017-05-24T06:09:12.668Z,20
2017-05-24T06:09:53.983Z,20
2017-05-24T06:10:35.362Z,20
2017-05-24T06:11:16.898Z,20
2017-05-24T06:11:58.269Z,20
2017-05-24T06:12:39.617Z,20
2017-05-24T06:13:20.973Z,25
2017-05-24T06:14:02.362Z,25
2017-05-24T06:14:43.760Z,25
2017-05-24T06:15:25.058Z,20
2017-05-24T06:16:06.436Z,25
2017-05-24T06:16:47.745Z,25
2017-05-24T06:17:28.941Z,25
2017-05-24T06:18:10.299Z,25
2017-05-24T06:18:51.668Z,30
2017-05-24T06:19:33.040Z,30
2017-05-24T06:20:14.338Z,35
2017-05-24T06:20:55.641Z,35
2017-05-24T06:21:36.376Z,35
2017-05-24T06:22:17.192Z,40
2017-05-24T06:22:57.788Z,40
2017-05-24T06:23:38.374Z,40
2017-05-24T06:24:18.968Z,45
2017-05-24T06:24:59.568Z,45
2017-05-24T06:25:40.186Z,45
2017-05-24T06:26:20.853Z,45
2017-05-24T06:27:01.549Z,45
2017-05-24T06:27:42.141Z,45
2017-05-24T06:28:22.728Z,45
2017-05-24T06:29:03.322Z,45
2017-05-24T06:29:43.912Z,45
2017-05-24T06:30:24.496Z,45
2017-05-24T06:31:05.099Z,40
2017-05-24T06:31:45.700Z,40
2017-05-24T06:32:26.321Z,40
2017-05-24T06:33:06.926Z,40
2017-05-24T06:33:47.517Z,40
2017-05-24T06:34:28.104Z,40
2017-05-24T06:35:08.702Z,40
2017-05-24T06:35:49.313Z,40
2017-05-24T06:36:29.906Z,40
2017-05-24T06:37:10.491Z,40
2017-05-24T06:37:51.101Z,40
2017-05-24T06:38:31.685Z,40
2017-05-24T06:39:12.292Z,40
2017-05-24T06:39:52.898Z,45
2017-05-24T06:40:33.470Z,45
2017-05-24T06:41:14.051Z,45
2017-05-24T06:41:54.643Z,45
2017-05-24T06:42:35.244Z,45
2017-05-24T06:43:15.832Z,45
2017-05-24T06:43:56.436Z,45
2017-05-24T06:44:37.061Z,45
2017-05-24T06:45:17.654Z,45
2017-05-24T06:45:58.244Z,45
2017-05-24T06:46:38.821Z,45
2017-05-24T06:47:19.398Z,45
2017-05-24T06:47:59.994Z,45
2017-05-24T06:48:40.568Z,45
2017-05-24T06:49:21.170Z,45
2017-05-24T06:50:01.744Z,45
2017-05-24T06:50:42.331Z,45
2017-05-24T06:51:22.923Z,45
2017-05-24T06:52:03.527Z,45
2017-05-24T06:52:44.124Z,45
2017-05-24T06:53:24.715Z,45
2017-05-24T06:54:05.294Z,45
2017-05-24T06:54:45.890Z,45
2017-05-24T06:55:26.478Z,45
2017-05-24T06:56:07.049Z,40
2017-05-24T06:56:47.670Z,40
2017-05-24T06:57:28.251Z,40
2017-05-24T06:58:08.846Z,40
2017-05-24T06:58:49.438Z,40
2017-05-24T06:59:30.122Z,40
2017-05-24T07:00:10.704Z,40
2017-05-24T07:00:51.295Z,40
2017-05-24T07:01:31.888Z,40
2017-05-24T07:02:12.499Z,40
2017-05-24T07:02:53.093Z,45
2017-05-24T07:03:33.686Z,45
2017-05-24T07:04:14.291Z,55
2017-05-24T07:04:54.879Z,65
2017-05-24T07:05:35.444Z,95
2017-05-24T07:06:16.024Z,135
2017-05-24T07:06:56.642Z,180
2017-05-24T07:07:37.222Z,140
2017-05-24T07:08:17.824Z,160
2017-05-24T07:08:58.430Z,225
2017-05-24T07:09:39.027Z,215
2017-05-24T07:10:19.621Z,180
2017-05-24T07:11:00.205Z,205
2017-05-24T07:11:40.793Z,255
2017-05-24T07:12:21.370Z,440
2017-05-24T07:13:01.973Z,245
2017-05-24T07:13:42.552Z,220
2017-05-24T07:14:23.169Z,215
2017-05-24T07:15:03.794Z,185
2017-05-24T07:15:44.394Z,165
2017-05-24T07:16:25.020Z,155
2017-05-24T07:17:05.605Z,170
2017-05-24T07:17:46.182Z,130
2017-05-24T07:18:26.758Z,135
2017-05-24T07:19:07.344Z,135
2017-05-24T07:19:47.974Z,120
2017-05-24T07:20:28.552Z,125
2017-05-24T07:21:09.136Z,125
2017-05-24T07:21:49.728Z,125
2017-05-24T07:22:30.324Z,125
2017-05-24T07:23:10.911Z,125
2017-05-24T07:23:51.490Z,125
2017-05-24T07:24:32.100Z,130
2017-05-24T07:25:12.667Z,140
2017-05-24T07:25:53.244Z,145
2017-05-24T07:26:33.856Z,145
2017-05-24T07:27:14.444Z,140
2017-05-24T07:27:55.048Z,135
2017-05-24T07:28:35.655Z,135
2017-05-24T07:29:16.243Z,140
2017-05-24T07:29:56.825Z,155
2017-05-24T07:30:37.409Z,190
2017-05-24T07:31:18.017Z,215
2017-05-24T07:31:58.631Z,240
2017-05-24T07:32:39.218Z,230
2017-05-24T07:33:19.807Z,200
2017-05-24T07:34:00.405Z,205
2017-05-24T07:34:40.989Z,200
2017-05-24T07:35:21.565Z,185
2017-05-24T07:36:02.148Z,180
2017-05-24T07:36:42.742Z,170
2017-05-24T07:37:23.362Z,160
2017-05-24T07:38:04.199Z,145
2017-05-24T07:38:44.836Z,145
2017-05-24T07:39:25.431Z,140
2017-05-24T07:40:06.018Z,130
2017-05-24T07:40:46.600Z,120
2017-05-24T07:41:27.198Z,110
2017-05-24T07:42:07.828Z,110
2017-05-24T07:42:48.417Z,105
2017-05-24T07:43:29.016Z,110
2017-05-24T07:44:09.617Z,110
2017-05-24T07:44:50.248Z,120
2017-05-24T07:45:30.834Z,125
2017-05-24T07:46:11.451Z,135
2017-05-24T07:46:52.042Z,130
2017-05-24T07:47:32.622Z,120
2017-05-24T07:48:13.220Z,115
2017-05-24T07:48:53.837Z,110
2017-05-24T07:49:34.426Z,105
2017-05-24T07:50:15.038Z,100
2017-05-24T07:50:55.642Z,95
2017-05-24T07:51:36.234Z,95
2017-05-24T07:52:16.856Z,85
2017-05-24T07:52:57.451Z,85
2017-05-24T07:53:38.036Z,85
2017-05-24T07:54:28.174Z,85
2017-05-24T07:55:19.422Z,80
2017-05-24T07:56:10.262Z,75
2017-05-24T07:56:50.834Z,80
2017-05-24T07:57:31.438Z,80
2017-05-24T07:58:12.041Z,80
2017-05-24T07:58:52.654Z,85
2017-05-24T07:59:33.236Z,85
2017-05-24T08:00:13.821Z,85
2017-05-24T08:00:54.527Z,85
2017-05-24T08:01:41.989Z,80
2017-05-24T08:02:24.223Z,80
2017-05-24T08:03:10.399Z,85
2017-05-24T08:03:51.093Z,85
2017-05-24T08:04:31.685Z,85
2017-05-24T08:05:12.292Z,85
2017-05-24T08:05:52.885Z,85
2017-05-24T08:06:33.491Z,80
2017-05-24T08:07:14.103Z,80
2017-05-24T08:07:55.529Z,75
2017-05-24T08:08:37.168Z,70
2017-05-24T08:09:17.768Z,70
2017-05-24T08:10:20.211Z,65
2017-05-24T08:11:01.298Z,65
2017-05-24T08:11:41.910Z,65
2017-05-24T08:12:24.815Z,65
2017-05-24T08:13:05.409Z,70
2017-05-24T08:13:45.980Z,70
2017-05-24T08:14:26.562Z,75
2017-05-24T08:15:07.172Z,75
2017-05-24T08:15:47.797Z,80
2017-05-24T08:16:28.372Z,80
2017-05-24T08:17:09.008Z,80
2017-05-24T08:17:49.588Z,85
2017-05-24T08:18:30.181Z,85
2017-05-24T08:19:10.766Z,85
2017-05-24T08:19:51.353Z,85
2017-05-24T08:20:31.935Z,90
2017-05-24T08:21:12.520Z,90
2017-05-24T08:21:53.098Z,90
2017-05-24T08:22:33.681Z,85
2017-05-24T08:23:14.283Z,85
2017-05-24T08:23:54.911Z,85
2017-05-24T08:24:35.477Z,85
2017-05-24T08:25:16.057Z,90
2017-05-24T08:25:56.635Z,90
2017-05-24T08:26:37.216Z,90
2017-05-24T08:27:17.798Z,95
2017-05-24T08:27:58.394Z,90
2017-05-24T08:28:38.993Z,85
2017-05-24T08:29:19.592Z,90
2017-05-24T08:30:00.202Z,95
2017-05-24T08:30:40.813Z,100
2017-05-24T08:31:22.107Z,95
2017-05-24T08:32:02.720Z,95
2017-05-24T08:32:45.984Z,85
2017-05-24T08:33:27.879Z,75
2017-05-24T08:34:08.476Z,60
2017-05-24T08:34:49.086Z,55
2017-05-24T08:35:29.736Z,50
2017-05-24T08:36:10.307Z,55
2017-05-24T08:36:50.875Z,55
2017-05-24T08:37:34.851Z,50
2017-05-24T08:38:15.583Z,65
2017-05-24T08:38:56.182Z,75
2017-05-24T08:39:36.767Z,85
2017-05-24T08:40:17.356Z,90
2017-05-24T08:40:57.928Z,90
2017-05-24T08:41:38.511Z,90
2017-05-24T08:42:19.092Z,85
2017-05-24T08:42:59.686Z,80
2017-05-24T08:43:40.276Z,85
2017-05-24T08:44:20.873Z,90
2017-05-24T08:45:01.447Z,95
2017-05-24T08:45:42.035Z,105
2017-05-24T08:46:22.646Z,105
2017-05-24T08:47:03.265Z,105
2017-05-24T08:47:43.860Z,105
2017-05-24T08:48:24.443Z,110
2017-05-24T08:49:05.058Z,100
2017-05-24T08:49:45.648Z,95
2017-05-24T08:50:26.231Z,100
2017-05-24T08:51:06.807Z,90
2017-05-24T08:51:47.449Z,70
2017-05-24T08:52:28.063Z,55
2017-05-24T08:53:08.777Z,55
2017-05-24T08:53:49.378Z,55
2017-05-24T08:54:29.990Z,55
2017-05-24T08:55:10.846Z,50
2017-05-24T08:55:51.506Z,55
2017-05-24T08:56:32.104Z,60
2017-05-24T08:57:12.707Z,60
2017-05-24T08:57:53.324Z,70
2017-05-24T08:58:33.900Z,80
2017-05-24T08:59:14.500Z,90
2017-05-24T08:59:55.317Z,95
2017-05-24T09:00:35.967Z,100
2017-05-24T09:01:16.544Z,100
2017-05-24T09:01:57.143Z,100
2017-05-24T09:02:37.813Z,95
2017-05-24T09:03:18.343Z,90
2017-05-24T09:03:58.921Z,90
2017-05-24T09:04:39.526Z,90
2017-05-24T09:05:20.116Z,85
2017-05-24T09:06:00.702Z,85
2017-05-24T09:06:41.274Z,100
2017-05-24T09:07:21.875Z,105
2017-05-24T09:08:02.463Z,115
2017-05-24T09:08:43.048Z,125
2017-05-24T09:09:23.636Z,125
2017-05-24T09:10:04.223Z,125
2017-05-24T09:10:44.826Z,130
2017-05-24T09:11:25.406Z,135
2017-05-24T09:12:06.064Z,140
2017-05-24T09:12:46.580Z,140
2017-05-24T09:13:27.160Z,140
2017-05-24T09:14:07.801Z,140
2017-05-24T09:14:48.396Z,140
2017-05-24T09:15:29.005Z,130
2017-05-24T09:16:09.603Z,120
2017-05-24T09:16:51.916Z,120
2017-05-24T09:17:32.509Z,125
2017-05-24T09:18:13.095Z,130
2017-05-24T09:18:53.696Z,120
2017-05-24T09:19:34.282Z,120
2017-05-24T09:20:14.858Z,125
2017-05-24T09:20:55.476Z,130
2017-05-24T09:21:36.059Z,135
2017-05-24T09:22:16.646Z,135
2017-05-24T09:22:57.230Z,130
2017-05-24T09:23:37.934Z,130
2017-05-24T09:24:18.511Z,125
2017-05-24T09:24:59.104Z,125
2017-05-24T09:25:39.682Z,120
2017-05-24T09:26:20.306Z,125
2017-05-24T09:27:00.914Z,130
2017-05-24T09:27:42.403Z,130
2017-05-24T09:28:22.993Z,130
2017-05-24T09:29:03.581Z,135
2017-05-24T09:29:44.161Z,135
2017-05-24T09:30:24.739Z,120
2017-05-24T09:31:05.342Z,120
2017-05-24T09:31:46.115Z,105
2017-05-24T09:32:26.694Z,100
2017-05-24T09:33:07.287Z,95
2017-05-24T09:33:47.859Z,105
2017-05-24T09:34:28.435Z,105
2017-05-24T09:35:09.047Z,105
2017-05-24T09:35:49.627Z,105
2017-05-24T09:36:30.207Z,115
2017-05-24T09:37:10.809Z,120
2017-05-24T09:37:51.396Z,120
2017-05-24T09:38:31.992Z,125
2017-05-24T09:39:12.631Z,125
2017-05-24T09:39:53.153Z,125
2017-05-24T09:40:33.735Z,125
2017-05-24T09:41:14.307Z,125
2017-05-24T09:41:54.886Z,120
2017-05-24T09:42:35.507Z,115
2017-05-24T09:43:16.092Z,110
2017-05-24T09:43:56.717Z,110
2017-05-24T09:44:37.293Z,110
2017-05-24T09:45:18.652Z,110
2017-05-24T09:45:59.233Z,100
2017-05-24T09:46:39.825Z,90